Time;durP1;ratioP1;P1;durP2;ratioP2;P2;SDS_P1;SDS_P2;PMS_P1;PMS_P2;Temp;Humidity;BMP_temperature;BMP_pressure;BME280_temperature;BME280_humidity;BME280_pressure;Samples;Min_cycle;Max_cycle;Signal;HPM_P1;HPM_P2
2022/01/09 00:09:37;;;;;;;33.50;19.90;;;;;;;-3.14;75.63;98522.71;445936;1271;141735;-64
2022/01/09 00:19:43;;;;;;;34.40;20.90;;;;;;;-3.36;75.91;98522.23;439504;1273;142423;-65
2022/01/09 00:29:49;;;;;;;29.20;19.90;;;;;;;-3.68;76.26;98521.30;447115;1271;141132;-64
2022/01/09 00:39:55;;;;;;;40.10;23.30;;;;;;;-3.92;76.78;98509.33;446360;1270;141712;-64
2022/01/09 00:50:01;;;;;;;40.70;23.90;;;;;;;-4.01;77.11;98502.35;442575;1268;142917;-65
2022/01/09 01:00:09;;;;;;;42.00;22.90;;;;;;;-4.03;77.44;98478.80;441307;1271;148034;-63
2022/01/09 01:10:15;;;;;;;43.80;25.30;;;;;;;-4.05;77.31;98468.08;440597;1270;141429;-64
2022/01/09 01:20:23;;;;;;;44.50;26.20;;;;;;;-4.26;77.49;98446.29;447379;1270;141962;-65
2022/01/09 01:30:29;;;;;;;40.50;25.50;;;;;;;-4.42;77.75;98428.91;446552;1269;142532;-64
2022/01/09 01:40:35;;;;;;;43.40;25.10;;;;;;;-4.60;77.87;98414.59;447401;1270;141549;-64
2022/01/09 01:50:42;;;;;;;35.00;24.80;;;;;;;-4.67;78.27;98397.14;447263;1271;142556;-64
2022/01/09 02:00:48;;;;;;;40.00;24.20;;;;;;;-4.68;78.42;98388.45;446585;1270;142582;-65
2022/01/09 02:10:54;;;;;;;42.00;23.60;;;;;;;-4.70;78.43;98380.98;447382;1271;142671;-65
2022/01/09 02:20:59;;;;;;;43.10;25.10;;;;;;;-4.75;78.35;98375.09;447197;1271;142302;-65
2022/01/09 02:31:05;;;;;;;47.70;27.60;;;;;;;-4.90;78.57;98375.75;446206;1270;142304;-65
2022/01/09 02:41:11;;;;;;;55.70;31.20;;;;;;;-5.09;78.70;98370.66;447436;1271;142793;-66
2022/01/09 02:51:18;;;;;;;49.00;29.10;;;;;;;-5.20;79.04;98359.63;446316;1273;142169;-63
2022/01/09 03:01:29;;;;;;;50.50;29.30;;;;;;;-5.29;79.19;98343.60;446924;1271;142408;-65
2022/01/09 03:11:37;;;;;;;50.30;28.10;;;;;;;-5.38;79.35;98326.71;447343;1271;141352;-65
2022/01/09 03:21:43;;;;;;;38.10;25.50;;;;;;;-5.51;79.46;98324.23;440846;1271;142904;-63
2022/01/09 03:31:48;;;;;;;42.00;26.50;;;;;;;-5.64;79.61;98315.45;433069;1271;141875;-64
2022/01/09 03:41:56;;;;;;;39.90;26.00;;;;;;;-5.78;79.79;98311.77;447368;1271;142896;-65
2022/01/09 03:52:02;;;;;;;43.80;25.40;;;;;;;-5.82;80.15;98301.78;446539;1271;143675;-65
2022/01/09 04:02:08;;;;;;;42.90;24.50;;;;;;;-5.75;80.24;98291.10;447319;1271;141897;-65
2022/01/09 04:12:18;;;;;;;45.50;26.50;;;;;;;-5.73;80.24;98286.09;446631;1270;142662;-64
2022/01/09 04:22:23;;;;;;;41.20;26.00;;;;;;;-5.71;80.18;98280.95;439931;1271;142756;-64
2022/01/09 04:32:29;;;;;;;39.60;24.40;;;;;;;-5.75;80.41;98278.13;435385;1271;142498;-65
2022/01/09 04:42:39;;;;;;;;;;;;;;;-5.79;80.56;98275.63;437540;1273;146859;-64
2022/01/09 04:52:46;;;;;;;46.00;27.20;;;;;;;-5.73;80.63;98258.31;430551;1271;129289;-64
2022/01/09 05:02:52;;;;;;;40.40;26.40;;;;;;;-5.70;80.64;98249.06;444889;1270;142571;-64
2022/01/09 05:12:58;;;;;;;39.20;25.60;;;;;;;-5.71;80.65;98232.71;446557;1269;142816;-64
2022/01/09 05:23:04;;;;;;;40.50;24.50;;;;;;;-5.75;80.61;98230.55;447284;1271;142188;-64
2022/01/09 05:33:09;;;;;;;46.40;25.60;;;;;;;-5.81;80.63;98225.73;447429;1269;143122;-64
2022/01/09 05:43:14;;;;;;;;;;;;;;;-5.88;80.63;98236.45;447133;1271;142444;-65
2022/01/09 05:53:20;;;;;;;40.60;25.60;;;;;;;-5.99;80.71;98247.57;447560;1270;130364;-65
2022/01/09 06:03:25;;;;;;;39.00;25.00;;;;;;;-6.13;80.65;98254.30;444078;1270;145597;-63
2022/01/09 06:13:32;;;;;;;43.40;25.00;;;;;;;-6.18;80.93;98265.29;431695;1270;143095;-63
2022/01/09 06:23:36;;;;;;;;;;;;;;;-5.99;81.32;98272.44;430123;1271;141877;-64
2022/01/09 06:33:42;;;;;;;47.50;26.10;;;;;;;-5.70;81.10;98270.72;429158;1270;131131;-64
2022/01/09 06:43:48;;;;;;;39.50;26.00;;;;;;;-5.71;80.79;98276.35;429630;1271;141984;-66
2022/01/09 06:53:54;;;;;;;46.90;29.30;;;;;;;-5.84;80.80;98290.90;447356;1270;142896;-65
2022/01/09 07:03:59;;;;;;;44.30;29.40;;;;;;;-5.94;80.83;98296.18;430288;1271;144773;-64
2022/01/09 07:14:05;;;;;;;45.30;28.40;;;;;;;-5.90;80.95;98303.11;430182;1271;142438;-64
2022/01/09 07:24:10;;;;;;;;;;;;;;;-5.77;80.86;98308.52;445023;1272;142943;-65
2022/01/09 07:34:15;;;;;;;49.60;29.50;;;;;;;-5.56;80.83;98301.98;447473;1270;128726;-64
2022/01/09 07:44:21;;;;;;;47.60;29.40;;;;;;;-5.19;80.84;98289.30;437297;1270;142963;-64
2022/01/09 07:54:32;;;;;;;40.00;23.70;;;;;;;-4.72;80.51;98290.35;445445;1270;142841;-64
2022/01/09 08:04:38;;;;;;;41.10;27.10;;;;;;;-4.39;80.19;98280.51;446959;1271;143344;-64
2022/01/09 08:14:49;;;;;;;44.90;28.40;;;;;;;-3.71;79.97;98280.83;438671;1270;142656;-63
2022/01/09 08:24:55;;;;;;;45.50;30.10;;;;;;;-0.62;78.72;98272.73;446041;1270;142637;-65
2022/01/09 08:35:01;;;;;;;44.60;29.50;;;;;;;1.94;74.74;98273.19;447416;1269;141666;-65
2022/01/09 08:45:08;;;;;;;42.50;30.70;;;;;;;3.15;71.84;98266.61;442532;1271;142789;-65
2022/01/09 08:55:14;;;;;;;42.80;30.10;;;;;;;3.21;70.43;98274.97;446916;1273;141653;-65
2022/01/09 09:05:21;;;;;;;48.00;34.30;;;;;;;3.00;69.29;98283.21;446847;1273;142317;-66
2022/01/09 09:15:27;;;;;;;41.00;32.00;;;;;;;3.28;68.41;98276.48;446393;1271;143055;-66
2022/01/09 09:25:32;;;;;;;40.20;29.60;;;;;;;4.31;67.10;98263.02;447474;1271;141005;-66
2022/01/09 09:35:39;;;;;;;39.50;29.80;;;;;;;6.53;64.92;98243.86;447499;1270;142450;-65
2022/01/09 09:45:46;;;;;;;44.90;31.20;;;;;;;5.26;63.57;98240.69;446519;1271;189228;-66
2022/01/09 09:55:53;;;;;;;41.00;27.70;;;;;;;3.08;64.80;98241.39;432491;1270;141077;-65
2022/01/09 10:05:59;;;;;;;38.50;26.80;;;;;;;1.89;66.27;98230.66;447313;1271;141137;-65
2022/01/09 10:16:05;;;;;;;38.70;26.60;;;;;;;1.19;66.97;98227.14;446591;1270;141333;-65
2022/01/09 10:26:14;;;;;;;43.30;28.00;;;;;;;0.67;67.54;98219.71;447187;1270;141555;-66
2022/01/09 10:47:01;;;;;;;40.50;25.60;;;;;;;0.15;68.48;98200.98;423364;1310;601682;-65
2022/01/09 10:57:15;;;;;;;44.20;26.70;;;;;;;0.01;68.77;98191.61;441908;1280;162886;-65
2022/01/09 11:07:22;;;;;;;33.90;23.30;;;;;;;-0.07;69.03;98177.84;434116;1283;142866;-70
2022/01/09 11:17:28;;;;;;;36.30;20.80;;;;;;;-0.06;69.30;98179.89;436753;1277;143007;-65
2022/01/09 11:27:59;;;;;;;36.80;23.60;;;;;;;-0.06;69.23;98180.06;437912;1278;141187;-68
2022/01/09 11:38:13;;;;;;;40.00;25.40;;;;;;;-0.03;69.50;98178.86;444232;1277;140163;-65
2022/01/09 11:48:20;;;;;;;36.60;25.10;;;;;;;-0.02;69.41;98174.73;444706;1278;142482;-66
2022/01/09 11:58:26;;;;;;;34.50;22.90;;;;;;;0.03;69.59;98176.05;431442;1280;140972;-65
2022/01/09 12:09:08;;;;;;;31.40;21.60;;;;;;;0.04;69.46;98181.35;432872;1279;140764;-66
2022/01/09 12:19:34;;;;;;;34.20;22.30;;;;;;;0.04;69.61;98176.52;444493;1279;141045;-63
2022/01/09 12:29:47;;;;;;;34.10;22.10;;;;;;;0.10;69.78;98170.91;442513;1279;142687;-65
2022/01/09 12:39:53;;;;;;;38.10;21.40;;;;;;;0.11;69.54;98169.84;444050;1279;141963;-66
2022/01/09 12:50:03;;;;;;;34.70;22.60;;;;;;;0.12;69.55;98166.05;440691;1280;141393;-68
2022/01/09 13:00:10;;;;;;;33.30;20.50;;;;;;;0.08;69.46;98176.19;441311;1279;142608;-67
2022/01/09 13:10:27;;;;;;;36.10;21.20;;;;;;;0.07;69.44;98179.52;445060;1279;141443;-69
2022/01/09 13:20:33;;;;;;;37.40;23.00;;;;;;;0.05;69.47;98186.98;445180;1279;141905;-68
2022/01/09 13:30:39;;;;;;;38.00;22.90;;;;;;;0.01;69.62;98200.56;444550;1278;141751;-67
2022/01/09 13:40:45;;;;;;;31.30;20.70;;;;;;;-0.05;69.58;98219.94;445156;1279;144130;-68
2022/01/09 13:50:51;;;;;;;31.50;21.20;;;;;;;-0.23;70.00;98222.56;445194;1279;142131;-68
2022/01/09 14:00:57;;;;;;;34.40;21.90;;;;;;;-0.38;69.96;98234.70;444711;1277;141622;-69
2022/01/09 14:11:07;;;;;;;37.70;22.10;;;;;;;-0.54;70.06;98239.98;439539;1279;202991;-67
2022/01/09 14:21:15;;;;;;;37.10;23.90;;;;;;;-0.77;70.67;98246.56;445251;1279;141409;-64
2022/01/09 14:31:22;;;;;;;40.50;23.30;;;;;;;-0.95;70.67;98252.22;444917;1279;197196;-67
2022/01/09 14:41:30;;;;;;;39.10;23.10;;;;;;;-1.08;71.03;98260.97;445098;1279;142488;-66
2022/01/09 14:51:35;;;;;;;41.80;24.70;;;;;;;-1.22;71.36;98269.38;443341;1279;141761;-66
2022/01/09 15:01:41;;;;;;;45.30;24.20;;;;;;;-1.40;71.51;98270.55;435551;1278;141530;-67
2022/01/09 15:11:47;;;;;;;45.30;28.30;;;;;;;-1.64;71.73;98266.96;445449;1279;140735;-67
2022/01/09 15:21:53;;;;;;;42.70;27.20;;;;;;;-1.80;71.86;98280.87;439398;1279;140985;-67
2022/01/09 15:32:00;;;;;;;41.10;25.70;;;;;;;-1.88;71.86;98288.00;436041;1280;142029;-67
2022/01/09 15:42:06;;;;;;;42.60;25.90;;;;;;;-1.90;71.98;98300.94;445431;1279;141051;-67
2022/01/09 15:52:12;;;;;;;40.30;25.70;;;;;;;-1.87;71.58;98316.95;442319;1280;141362;-67
2022/01/09 16:02:19;;;;;;;42.90;26.00;;;;;;;-1.93;71.71;98324.56;445234;1279;143221;-67
2022/01/09 16:12:25;;;;;;;43.50;25.00;;;;;;;-2.13;71.96;98341.14;444412;1279;141707;-69
2022/01/09 16:22:30;;;;;;;43.10;24.10;;;;;;;-2.32;72.27;98350.32;433204;1280;141784;-67
2022/01/09 16:32:37;;;;;;;41.30;25.90;;;;;;;-2.42;72.49;98364.49;439187;1278;141225;-65
2022/01/09 16:42:44;;;;;;;41.20;24.70;;;;;;;-2.44;72.77;98377.94;434858;1280;142277;-68
2022/01/09 16:52:49;;;;;;;45.80;26.70;;;;;;;-2.45;72.74;98387.73;445372;1279;141833;-68
2022/01/09 17:02:55;;;;;;;46.00;25.30;;;;;;;-2.51;73.02;98397.85;445306;1278;142451;-68
2022/01/09 17:13:01;;;;;;;41.10;26.20;;;;;;;-2.58;73.16;98407.30;445675;1274;142957;-68
2022/01/09 17:23:08;;;;;;;41.80;25.90;;;;;;;-2.52;73.21;98402.50;446342;1274;141264;-67
2022/01/09 17:33:15;;;;;;;42.30;25.30;;;;;;;-2.43;73.00;98421.09;445663;1275;141513;-65
2022/01/09 17:43:20;;;;;;;44.30;26.60;;;;;;;-2.53;72.93;98433.03;430258;1274;141041;-68
2022/01/09 17:53:27;;;;;;;40.60;23.30;;;;;;;-2.67;73.09;98451.42;430981;1277;142133;-67
2022/01/09 18:03:35;;;;;;;45.10;26.00;;;;;;;-2.79;73.26;98460.67;445685;1274;142690;-67
2022/01/09 18:13:41;;;;;;;42.90;26.40;;;;;;;-2.94;73.37;98466.72;446035;1277;141362;-59
2022/01/09 18:23:48;;;;;;;50.80;26.50;;;;;;;-3.11;73.63;98478.15;441536;1274;141249;-60
2022/01/09 18:33:54;;;;;;;48.50;27.60;;;;;;;-3.27;73.96;98489.30;446215;1273;141366;-60
2022/01/09 18:43:59;;;;;;;47.80;26.70;;;;;;;-3.30;74.20;98494.02;446872;1272;142192;-60
2022/01/09 18:54:05;;;;;;;47.90;27.50;;;;;;;-3.23;74.35;98495.55;446337;1274;142059;-60
2022/01/09 19:04:14;;;;;;;51.50;29.30;;;;;;;-3.23;74.22;98497.27;446144;1272;141247;-59
2022/01/09 19:14:20;;;;;;;54.10;32.10;;;;;;;-3.38;74.18;98506.88;446840;1274;143365;-60
2022/01/09 19:24:26;;;;;;;32.40;20.70;;;;;;;-3.48;74.44;98523.55;445982;1273;141572;-59
2022/01/09 19:34:32;;;;;;;41.90;25.30;;;;;;;-3.47;74.54;98529.17;446893;1274;141180;-58
2022/01/09 19:44:37;;;;;;;57.40;31.40;;;;;;;-3.47;74.55;98539.77;438563;1273;140882;-62
2022/01/09 19:54:44;;;;;;;48.90;28.40;;;;;;;-3.56;74.48;98545.48;441776;1273;141653;-60
2022/01/09 20:04:50;;;;;;;53.80;31.70;;;;;;;-3.73;74.75;98548.91;443795;1273;141773;-61
2022/01/09 20:14:59;;;;;;;50.20;30.00;;;;;;;-3.78;75.01;98557.77;433828;1273;142895;-61
2022/01/09 20:25:06;;;;;;;55.00;30.10;;;;;;;-3.72;74.98;98568.23;436302;1274;141690;-61
2022/01/09 20:35:13;;;;;;;55.60;31.80;;;;;;;-3.83;75.12;98580.29;446905;1273;141119;-61
2022/01/09 20:45:19;;;;;;;47.30;28.70;;;;;;;-3.94;75.17;98595.20;443801;1272;140887;-61
2022/01/09 20:55:25;;;;;;;57.60;29.40;;;;;;;-3.94;75.40;98605.98;441788;1273;141087;-61
2022/01/09 21:05:31;;;;;;;61.30;31.30;;;;;;;-3.87;75.32;98617.81;446782;1273;142179;-61
2022/01/09 21:15:36;;;;;;;53.60;30.60;;;;;;;-3.86;75.10;98639.17;445981;1273;141205;-61
2022/01/09 21:25:42;;;;;;;50.80;30.60;;;;;;;-3.98;75.17;98650.86;446959;1273;141054;-62
2022/01/09 21:35:48;;;;;;;46.40;29.30;;;;;;;-4.20;75.42;98665.29;433010;1273;140395;-62
2022/01/09 21:45:55;;;;;;;47.30;31.80;;;;;;;-4.40;75.69;98673.70;429326;1273;141861;-61
2022/01/09 21:56:00;;;;;;;48.80;30.20;;;;;;;-4.56;76.03;98680.13;432886;1273;141474;-61
2022/01/09 22:06:06;;;;;;;51.80;30.40;;;;;;;-4.58;76.14;98703.88;446935;1273;142525;-62
2022/01/09 22:16:12;;;;;;;51.20;30.30;;;;;;;-4.47;76.23;98716.52;446020;1273;142173;-62
2022/01/09 22:26:18;;;;;;;54.30;30.90;;;;;;;-4.39;75.99;98719.98;446646;1272;141819;-62
2022/01/09 22:36:25;;;;;;;50.10;30.70;;;;;;;-4.45;75.96;98736.99;432648;1273;141840;-62
2022/01/09 22:46:33;;;;;;;57.70;32.40;;;;;;;-4.65;76.07;98753.71;446862;1273;141152;-62
2022/01/09 22:56:39;;;;;;;55.30;31.40;;;;;;;-4.79;76.32;98767.06;433480;1273;191100;-62
2022/01/09 23:06:45;;;;;;;50.00;29.70;;;;;;;-4.93;76.51;98786.55;434843;1273;141238;-60
2022/01/09 23:16:51;;;;;;;48.20;26.90;;;;;;;-4.88;76.73;98794.69;432336;1273;141065;-62
2022/01/09 23:27:00;;;;;;;46.20;28.40;;;;;;;-4.77;76.62;98794.70;446925;1273;141868;-62
2022/01/09 23:37:21;;;;;;;48.90;30.10;;;;;;;-4.68;76.61;98802.94;445676;1273;142396;-59
2022/01/09 23:47:30;;;;;;;55.50;29.40;;;;;;;-4.68;76.52;98817.64;446441;1273;140972;-63
2022/01/09 23:57:37;;;;;;;50.10;27.60;;;;;;;-4.86;76.55;98830.86;445768;1272;141133;-63
